Time;durP1;ratioP1;P1;durP2;ratioP2;P2;SDS_P1;SDS_P2;PMS_P1;PMS_P2;Temp;Humidity;BMP_temperature;BMP_pressure;BME280_temperature;BME280_humidity;BME280_pressure;Samples;Min_cycle;Max_cycle;Signal;HPM_P1;HPM_P2
2023/10/16 00:02:13;;;;;;;14.55;2.78;;;;;;;23.96;48.28;96227.22;5097340;28;20070;-26
2023/10/16 00:04:46;;;;;;;9.55;2.47;;;;;;;23.98;48.03;96224.69;5097239;28;20028;-27
2023/10/16 00:07:13;;;;;;;;;;;;;;;23.95;47.68;96226.47;5105103;28;20066;-26
2023/10/16 00:09:40;;;;;;;11.52;2.15;;;;;;;23.72;47.84;96235.53;5097262;28;19912;-27
2023/10/16 00:12:06;;;;;;;13.10;2.33;;;;;;;23.98;47.38;96230.94;5097488;28;20036;-26
2023/10/16 00:14:31;;;;;;;8.70;1.98;;;;;;;23.85;47.51;96232.88;5096804;28;20020;-26
2023/10/16 00:16:57;;;;;;;11.23;2.20;;;;;;;23.75;47.15;96229.69;5097054;28;20111;-27
2023/10/16 00:19:26;;;;;;;9.38;1.85;;;;;;;23.76;47.40;96227.69;5097534;28;20066;-26
2023/10/16 00:21:52;;;;;;;11.00;2.13;;;;;;;23.98;46.50;96224.69;5102714;28;20035;-26
2023/10/16 00:24:18;;;;;;;10.18;3.05;;;;;;;23.73;46.67;96232.25;5098023;28;20016;-27
2023/10/16 00:26:50;;;;;;;7.07;1.65;;;;;;;23.73;46.79;96229.47;5096897;28;20028;-28
2023/10/16 00:32:00;;;;;;;8.05;1.85;;;;;;;23.87;46.62;96231.06;5102282;28;20030;-26
2023/10/16 00:34:25;;;;;;;9.27;1.63;;;;;;;23.75;46.72;96224.16;5098038;28;20028;-27
2023/10/16 00:36:54;;;;;;;11.20;2.22;;;;;;;23.76;46.33;96225.66;5101743;28;20463;-27
2023/10/16 00:39:20;;;;;;;14.48;2.40;;;;;;;23.88;46.45;96240.13;5096216;28;20467;-27
2023/10/16 00:41:46;;;;;;;7.85;1.95;;;;;;;23.78;46.14;96231.44;5097054;28;20030;-27
2023/10/16 00:44:16;;;;;;;9.80;1.90;;;;;;;23.83;46.06;96229.88;5096184;28;20019;-26
2023/10/16 00:46:48;;;;;;;9.00;1.98;;;;;;;23.75;45.69;96235.22;5096414;28;20055;-28
2023/10/16 00:49:15;;;;;;;13.13;2.58;;;;;;;23.55;46.28;96230.91;5095441;28;20020;-26
2023/10/16 00:51:41;;;;;;;8.13;2.10;;;;;;;23.61;46.04;96237.13;5096467;28;20063;-29
2023/10/16 00:54:47;;;;;;;10.38;1.75;;;;;;;23.46;46.31;96236.00;5094543;28;20084;-28
2023/10/16 00:57:13;;;;;;;9.43;1.83;;;;;;;23.65;45.56;96231.31;5096157;28;20016;-27
2023/10/16 00:59:41;;;;;;;9.85;2.30;;;;;;;23.69;45.37;96226.25;5096600;28;20391;-27
2023/10/16 01:04:32;;;;;;;10.20;1.95;;;;;;;23.50;45.24;96225.38;5096622;28;20098;-27
2023/10/16 01:06:58;;;;;;;9.95;1.95;;;;;;;23.64;45.13;96218.72;5096135;28;20056;-27
2023/10/16 01:09:23;;;;;;;11.60;1.63;;;;;;;23.57;45.21;96230.38;5095962;28;20058;-28
2023/10/16 01:11:53;;;;;;;7.68;2.22;;;;;;;23.75;44.61;96218.63;5096001;28;20027;-27
2023/10/16 01:14:19;;;;;;;7.47;1.85;;;;;;;23.76;44.69;96225.66;5096429;28;20533;-27
2023/10/16 01:16:44;;;;;;;8.85;2.20;;;;;;;23.47;45.44;96224.41;5096061;28;20032;-28
2023/10/16 01:19:10;;;;;;;7.90;1.58;;;;;;;23.47;45.48;96237.50;5095782;28;20074;-27
2023/10/16 01:21:36;;;;;;;10.25;2.15;;;;;;;23.53;45.24;96227.16;5096116;28;20107;-26
2023/10/16 01:24:12;;;;;;;9.68;1.80;;;;;;;23.70;44.95;96224.97;5096074;28;20028;-28
2023/10/16 01:26:40;;;;;;;9.25;1.80;;;;;;;23.58;44.80;96221.56;5095514;28;20073;-27
2023/10/16 01:29:08;;;;;;;10.43;2.13;;;;;;;23.55;44.99;96221.84;5095470;28;20032;-27
2023/10/16 01:31:36;;;;;;;6.22;1.67;;;;;;;23.70;44.66;96230.50;5095573;28;20048;-26
2023/10/16 01:34:02;;;;;;;11.07;2.25;;;;;;;23.76;44.59;96224.91;5095315;28;20030;-27
2023/10/16 01:36:30;;;;;;;6.63;1.73;;;;;;;23.59;44.65;96233.38;5095891;28;20016;-27
2023/10/16 01:38:59;;;;;;;11.65;2.00;;;;;;;23.65;44.84;96220.22;5101604;28;20108;-28
2023/10/16 01:41:24;;;;;;;8.13;1.67;;;;;;;23.73;44.59;96226.72;5102491;28;20043;-27
2023/10/16 01:43:52;;;;;;;8.27;2.17;;;;;;;23.63;44.83;96220.00;5095115;28;20020;-28
2023/10/16 01:46:18;;;;;;;7.47;2.13;;;;;;;23.72;44.88;96227.22;5095319;28;20605;-27
2023/10/16 01:48:46;;;;;;;10.00;1.98;;;;;;;23.46;45.39;96224.94;5094996;28;20099;-27
2023/10/16 01:51:18;;;;;;;10.27;2.22;;;;;;;23.34;46.10;96224.28;5094851;28;20462;-27
2023/10/16 01:53:44;;;;;;;7.07;1.95;;;;;;;23.66;45.43;96223.75;5095219;28;20464;-27
2023/10/16 01:56:13;;;;;;;10.63;2.00;;;;;;;23.56;45.38;96210.25;5095208;28;20031;-27
2023/10/16 01:58:44;;;;;;;9.52;1.98;;;;;;;23.67;45.32;96209.41;5094748;28;20500;-27
2023/10/16 02:01:14;;;;;;;5.85;1.52;;;;;;;23.56;45.37;96212.28;5101951;28;20056;-27
2023/10/16 02:03:44;;;;;;;8.02;1.90;;;;;;;23.57;45.44;96213.78;5095089;28;20023;-27
2023/10/16 02:06:11;;;;;;;7.05;1.80;;;;;;;23.37;45.79;96206.63;5095292;28;20035;-26
2023/10/16 02:08:38;;;;;;;9.85;1.90;;;;;;;23.54;45.51;96210.03;5094785;28;20093;-27
2023/10/16 02:11:04;;;;;;;7.13;1.60;;;;;;;23.42;46.01;96205.84;5094981;28;20027;-27
2023/10/16 02:13:31;;;;;;;3.65;1.83;;;;;;;23.52;45.62;96207.00;5094952;28;20020;-27
2023/10/16 02:15:56;;;;;;;5.65;2.05;;;;;;;23.62;45.09;96213.72;5094356;28;20425;-27
2023/10/16 02:18:27;;;;;;;4.47;1.50;;;;;;;23.52;45.59;96209.03;5094301;28;20073;-27
2023/10/16 02:20:53;;;;;;;7.28;1.95;;;;;;;23.61;45.55;96212.22;5094904;28;20106;-27
2023/10/16 02:23:19;;;;;;;7.75;1.90;;;;;;;23.73;45.02;96209.34;5094439;28;20518;-27
2023/10/16 02:25:45;;;;;;;5.55;1.83;;;;;;;23.47;45.66;96220.91;5097549;28;20039;-27
2023/10/16 02:28:19;;;;;;;9.50;2.60;;;;;;;23.58;45.24;96215.28;5096836;28;20024;-27
2023/10/16 02:30:49;;;;;;;10.20;2.28;;;;;;;23.61;45.25;96209.44;5099743;28;20379;-27
2023/10/16 02:35:47;;;;;;;7.03;1.70;;;;;;;23.35;45.77;96211.19;5101789;28;20031;-27
2023/10/16 02:38:13;;;;;;;5.90;1.70;;;;;;;23.54;45.37;96206.50;5094344;28;20016;-28
2023/10/16 02:40:41;;;;;;;7.65;2.15;;;;;;;23.59;44.96;96222.31;5095061;28;22027;-27
2023/10/16 02:43:13;;;;;;;5.85;1.77;;;;;;;23.49;45.25;96221.84;5099853;28;20480;-27
2023/10/16 02:45:42;;;;;;;8.27;1.60;;;;;;;23.38;45.57;96229.50;5101879;28;20095;-27
2023/10/16 02:48:10;;;;;;;3.88;1.55;;;;;;;23.33;45.50;96225.53;5094048;28;20092;-26
2023/10/16 02:50:36;;;;;;;3.28;1.35;;;;;;;23.46;45.29;96227.69;5094230;28;20020;-29
2023/10/16 02:53:06;;;;;;;6.07;1.42;;;;;;;23.45;45.44;96229.72;5093603;28;20044;-27
2023/10/16 02:55:32;;;;;;;5.80;2.08;;;;;;;23.56;45.13;96220.56;5093969;28;20073;-27
2023/10/16 02:58:04;;;;;;;5.05;1.63;;;;;;;23.39;45.71;96225.47;5094330;28;20059;-27
2023/10/16 03:00:34;;;;;;;6.07;1.65;;;;;;;23.24;45.61;96212.75;5094099;28;20032;-28
2023/10/16 03:03:00;;;;;;;8.05;1.90;;;;;;;23.24;45.93;96220.34;5094264;28;20582;-27
2023/10/16 03:05:28;;;;;;;9.80;1.65;;;;;;;23.09;46.11;96217.19;5093816;28;20091;-27
2023/10/16 03:07:54;;;;;;;5.00;1.67;;;;;;;23.50;45.37;96220.63;5093884;28;20472;-27
2023/10/16 03:10:24;;;;;;;7.50;1.65;;;;;;;23.22;45.83;96223.63;5093612;28;20020;-27
2023/10/16 03:12:50;;;;;;;6.75;2.00;;;;;;;23.19;45.49;96221.13;5092808;28;20032;-26
2023/10/16 03:15:20;;;;;;;11.57;1.83;;;;;;;23.19;45.78;96224.66;5094091;28;20020;-27
2023/10/16 03:17:50;;;;;;;4.95;1.90;;;;;;;23.40;45.30;96222.19;5093837;28;20472;-27
2023/10/16 03:20:37;;;;;;;4.57;1.50;;;;;;;23.26;45.59;96223.31;5093762;28;20027;-28
2023/10/16 03:23:07;;;;;;;9.73;1.75;;;;;;;23.18;45.70;96228.69;5093331;28;20036;-27
2023/10/16 03:28:08;;;;;;;5.22;1.80;;;;;;;23.03;45.88;96228.28;5093338;28;20051;-27
2023/10/16 03:30:34;;;;;;;9.63;2.05;;;;;;;23.08;46.17;96233.03;5094142;28;20030;-26
2023/10/16 03:33:03;;;;;;;6.15;1.42;;;;;;;23.27;45.38;96233.88;5093532;28;20024;-27
2023/10/16 03:35:31;;;;;;;4.97;1.35;;;;;;;23.06;45.58;96238.31;5093713;28;20024;-26
2023/10/16 03:37:58;;;;;;;3.60;1.25;;;;;;;23.20;45.47;96242.75;5093529;28;20069;-27
2023/10/16 03:40:25;;;;;;;6.05;1.45;;;;;;;23.27;45.21;96242.19;5093995;28;20111;-27
2023/10/16 03:42:53;;;;;;;3.53;1.02;;;;;;;23.04;45.57;96251.91;5093580;28;20024;-27
2023/10/16 03:45:23;;;;;;;4.93;1.40;;;;;;;23.03;45.80;96244.88;5093481;28;20016;-28
2023/10/16 03:47:52;;;;;;;5.03;1.38;;;;;;;22.99;45.97;96255.47;5100638;28;20028;-26
2023/10/16 03:50:26;;;;;;;3.20;1.30;;;;;;;22.83;46.39;96250.81;5099143;28;20493;-26
2023/10/16 03:52:56;;;;;;;4.30;1.20;;;;;;;23.13;45.79;96257.13;5093632;28;20047;-26
2023/10/16 03:55:25;;;;;;;5.57;1.25;;;;;;;23.19;45.39;96246.78;5093490;28;20024;-27
2023/10/16 03:57:52;;;;;;;3.83;1.15;;;;;;;23.09;45.71;96248.38;5093285;28;20066;-27
2023/10/16 04:00:19;;;;;;;3.28;0.90;;;;;;;23.10;45.77;96249.13;5093109;28;20463;-26
2023/10/16 04:02:44;;;;;;;4.70;0.98;;;;;;;23.13;45.61;96248.06;5093106;28;20028;-27
2023/10/16 04:07:54;;;;;;;6.63;0.85;;;;;;;23.19;45.34;96252.31;5093428;28;20108;-26
2023/10/16 04:10:28;;;;;;;3.50;1.10;;;;;;;23.10;45.30;96255.41;5093311;28;20051;-27
2023/10/16 04:12:57;;;;;;;2.78;1.38;;;;;;;23.09;45.37;96259.44;5091802;28;20383;-26
2023/10/16 04:18:17;;;;;;;3.42;1.20;;;;;;;22.85;45.93;96262.09;5093039;28;20028;-27
2023/10/16 04:20:43;;;;;;;3.20;0.98;;;;;;;22.80;45.87;96266.38;5093594;28;20027;-27
2023/10/16 04:26:29;;;;;;;1.60;0.75;;;;;;;23.08;45.39;96260.69;5102102;28;20131;-27
2023/10/16 04:41:31;;;;;;;4.00;0.75;;;;;;;22.93;45.37;96247.22;5105149;28;20077;-28
2023/10/16 05:03:35;;;;;;;0.90;0.52;;;;;;;22.78;45.61;96257.09;5096284;28;20047;-27
2023/10/16 05:06:05;;;;;;;5.80;0.80;;;;;;;23.04;44.29;96251.16;5096304;28;20024;-28
2023/10/16 05:11:32;;;;;;;2.15;0.90;;;;;;;22.89;44.77;96259.78;5096055;28;20081;-26
2023/10/16 05:14:19;;;;;;;2.10;0.80;;;;;;;22.90;44.47;96275.88;5096031;28;20036;-26
2023/10/16 05:22:09;;;;;;;1.17;0.55;;;;;;;22.77;44.90;96278.47;5102964;28;20359;-26
2023/10/16 06:14:14;;;;;;;1.48;0.60;;;;;;;22.99;42.96;96294.19;5102033;28;20030;-26
2023/10/16 06:16:41;;;;;;;2.55;0.50;;;;;;;23.05;42.83;96297.66;5094462;28;20028;-27
2023/10/16 06:19:19;;;;;;;2.33;0.80;;;;;;;22.99;42.83;96298.97;5094651;28;20490;-26
2023/10/16 06:21:49;;;;;;;3.35;0.70;;;;;;;22.96;42.82;96305.53;5095208;28;20024;-26
2023/10/16 06:24:28;;;;;;;0.85;0.60;;;;;;;22.89;43.16;96306.81;5094644;28;20020;-26
2023/10/16 06:26:53;;;;;;;1.90;0.50;;;;;;;22.93;42.84;96310.81;5094692;28;20060;-26
2023/10/16 06:29:19;;;;;;;1.20;0.47;;;;;;;22.69;43.40;96315.44;5094710;28;20071;-27
2023/10/16 06:31:53;;;;;;;1.98;0.40;;;;;;;22.72;42.91;96314.41;5094262;28;20028;-28
2023/10/16 06:34:20;;;;;;;2.30;0.57;;;;;;;22.87;42.96;96309.34;5094074;28;20380;-27
2023/10/16 06:36:46;;;;;;;1.13;0.60;;;;;;;22.81;43.14;96312.13;5094369;28;20030;-26
2023/10/16 06:39:28;;;;;;;3.08;0.50;;;;;;;22.78;43.06;96315.16;5094354;28;20356;-26
2023/10/16 06:41:54;;;;;;;1.02;0.50;;;;;;;22.91;42.62;96315.34;5094574;28;20028;-27
2023/10/16 06:44:28;;;;;;;2.08;0.60;;;;;;;22.76;42.57;96323.22;5094199;28;20016;-27
2023/10/16 06:46:58;;;;;;;1.98;0.98;;;;;;;22.76;43.30;96314.91;5101466;28;20024;-27
2023/10/16 06:49:26;;;;;;;1.40;0.50;;;;;;;22.86;42.84;96316.16;5093794;28;20024;-27
2023/10/16 06:51:56;;;;;;;4.32;0.65;;;;;;;22.86;42.49;96319.66;5093707;28;20051;-26
2023/10/16 06:54:22;;;;;;;1.83;0.40;;;;;;;22.89;42.23;96320.63;5093761;28;20024;-27
2023/10/16 06:56:48;;;;;;;3.67;0.70;;;;;;;22.95;42.58;96318.59;5094215;28;20024;-28
2023/10/16 06:59:16;;;;;;;2.83;0.63;;;;;;;22.94;42.44;96319.88;5094050;28;20023;-26
2023/10/16 07:01:46;;;;;;;3.90;0.95;;;;;;;22.91;42.78;96318.13;5093690;28;20066;-27
2023/10/16 07:04:14;;;;;;;3.53;0.60;;;;;;;23.01;42.04;96333.13;5094075;28;20028;-27
2023/10/16 07:06:42;;;;;;;1.55;0.70;;;;;;;22.91;42.09;96331.94;5093680;28;20036;-27
2023/10/16 07:09:09;;;;;;;2.25;0.65;;;;;;;22.94;42.02;96330.94;5093673;28;20577;-27
2023/10/16 07:11:34;;;;;;;1.85;0.65;;;;;;;22.74;42.53;96336.78;5093948;28;20099;-26
2023/10/16 07:14:00;;;;;;;1.85;0.60;;;;;;;22.77;42.40;96339.28;5094121;28;20115;-28
2023/10/16 07:16:25;;;;;;;1.73;0.60;;;;;;;22.86;42.52;96341.03;5101027;28;20028;-26
2023/10/16 07:18:54;;;;;;;1.45;0.60;;;;;;;22.88;42.49;96344.75;5100098;28;20386;-26
2023/10/16 07:21:21;;;;;;;1.33;0.60;;;;;;;22.88;42.53;96338.47;5094440;28;20030;-27
2023/10/16 07:23:46;;;;;;;3.25;0.90;;;;;;;23.09;41.90;96344.44;5092216;28;20089;-27
2023/10/16 07:26:17;;;;;;;3.58;0.60;;;;;;;22.97;41.99;96340.22;5093430;28;20019;-27
2023/10/16 07:28:48;;;;;;;2.15;0.77;;;;;;;22.92;42.49;96339.72;5093470;28;20023;-28
2023/10/16 07:31:16;;;;;;;3.42;0.90;;;;;;;22.91;42.55;96343.00;5093172;28;20016;-27
2023/10/16 07:33:42;;;;;;;2.50;0.70;;;;;;;22.97;42.06;96346.50;5100915;28;20031;-26
2023/10/16 07:36:13;;;;;;;5.18;0.70;;;;;;;22.86;42.62;96357.63;5093992;28;20073;-26
2023/10/16 07:38:39;;;;;;;2.88;0.80;;;;;;;22.90;42.36;96356.06;5093552;28;20076;-27
2023/10/16 07:41:05;;;;;;;1.23;0.60;;;;;;;22.83;42.63;96356.63;5093464;28;20451;-26
2023/10/16 07:43:36;;;;;;;3.63;0.98;;;;;;;23.20;42.03;96358.94;5093442;28;20027;-27
2023/10/16 07:48:49;;;;;;;2.92;0.77;;;;;;;22.99;41.98;96360.56;5093930;28;20028;-27
2023/10/16 07:51:16;;;;;;;1.67;0.63;;;;;;;23.05;41.87;96368.84;5093298;28;20062;-27
2023/10/16 07:53:41;;;;;;;2.83;0.95;;;;;;;23.11;41.97;96361.28;5093549;28;20105;-26
2023/10/16 07:58:54;;;;;;;2.03;1.08;;;;;;;23.17;42.13;96364.75;5094298;28;20415;-27
2023/10/16 08:01:32;;;;;;;6.25;2.55;;;;;;;23.26;41.73;96373.47;5097095;28;20024;-27
2023/10/16 08:03:58;;;;;;;2.45;0.60;;;;;;;23.21;41.84;96371.50;5097560;28;20024;-27
2023/10/16 08:06:25;;;;;;;2.42;0.70;;;;;;;23.08;42.15;96368.56;5097132;28;20490;-27
2023/10/16 08:09:29;;;;;;;2.13;0.80;;;;;;;23.10;42.19;96379.88;5104427;28;20023;-27
2023/10/16 08:11:46;;;;;;;2.95;0.77;;;;;;;23.24;41.71;96376.00;5097043;28;20024;-28
2023/10/16 08:14:13;;;;;;;1.27;0.68;;;;;;;23.42;41.48;96376.66;5096731;28;20333;-26
2023/10/16 08:16:39;;;;;;;2.67;0.80;;;;;;;23.37;41.12;96388.53;5097076;28;20016;-27
2023/10/16 08:19:31;;;;;;;2.53;0.93;;;;;;;23.35;41.45;96380.75;5097180;28;20078;-26
2023/10/16 08:21:56;;;;;;;2.28;1.00;;;;;;;23.37;41.34;96385.78;5097788;28;20059;-26
2023/10/16 08:24:21;;;;;;;3.88;0.90;;;;;;;23.42;41.00;96385.72;5097220;28;20402;-28
2023/10/16 08:26:48;;;;;;;1.92;0.80;;;;;;;23.35;41.33;96391.81;5096818;28;20050;-26
2023/10/16 08:32:43;;;;;;;2.80;0.80;;;;;;;23.23;41.48;96391.13;5097015;28;20043;-27
2023/10/16 08:34:35;;;;;;;2.63;0.95;;;;;;;23.36;41.57;96382.25;5096684;28;20574;-29
2023/10/16 08:37:04;;;;;;;1.90;0.90;;;;;;;23.42;41.17;96385.72;5102026;28;20071;-27
2023/10/16 08:39:36;;;;;;;2.22;0.85;;;;;;;23.36;41.66;96400.88;5097842;27;20360;-27
2023/10/16 08:42:18;;;;;;;2.60;0.82;;;;;;;23.54;41.61;96387.19;5096447;28;20068;-27
2023/10/16 08:44:51;;;;;;;3.37;0.87;;;;;;;23.35;41.45;96391.81;5096402;28;20545;-28
2023/10/16 08:47:27;;;;;;;1.88;0.80;;;;;;;23.52;41.46;96400.03;5096163;28;20016;-26
2023/10/16 08:49:56;;;;;;;1.83;0.77;;;;;;;23.52;41.21;96398.00;5097089;28;20036;-28
2023/10/16 08:52:23;;;;;;;4.47;1.05;;;;;;;23.51;41.01;96404.06;5100749;27;20048;-27
2023/10/16 08:57:19;;;;;;;2.85;1.23;;;;;;;23.46;40.93;96402.06;5096411;28;20016;-27
2023/10/16 08:59:47;;;;;;;2.55;1.10;;;;;;;23.48;40.97;96400.28;5096179;28;20059;-27
2023/10/16 09:02:17;;;;;;;2.47;0.80;;;;;;;23.52;40.99;96388.94;5095921;28;20016;-27
2023/10/16 09:04:44;;;;;;;1.95;0.80;;;;;;;23.49;41.29;96398.28;5096204;28;20027;-27
2023/10/16 09:07:16;;;;;;;4.10;1.10;;;;;;;23.66;40.88;96396.16;5096358;28;20458;-26
2023/10/16 09:09:42;;;;;;;2.38;0.77;;;;;;;23.56;41.13;96390.19;5095974;28;20387;-27
2023/10/16 09:12:10;;;;;;;3.78;0.75;;;;;;;23.57;40.81;96388.94;5095103;28;20031;-27
2023/10/16 09:14:38;;;;;;;2.53;0.80;;;;;;;23.54;41.31;96400.25;5095748;28;20020;-27
2023/10/16 09:17:06;;;;;;;5.53;1.15;;;;;;;23.56;41.06;96408.81;5096020;28;20451;-27
2023/10/16 09:19:35;;;;;;;2.63;0.82;;;;;;;23.56;41.04;96400.50;5095812;28;20026;-27
2023/10/16 09:22:05;;;;;;;2.63;0.88;;;;;;;23.50;40.73;96396.97;5096501;28;20049;-27
2023/10/16 09:24:33;;;;;;;1.88;1.00;;;;;;;23.56;40.96;96411.59;5103398;28;20024;-28
2023/10/16 09:26:59;;;;;;;2.10;0.80;;;;;;;23.62;40.60;96399.19;5096175;28;20098;-27
2023/10/16 09:29:26;;;;;;;1.73;0.80;;;;;;;23.52;41.07;96397.25;5095518;28;20049;-26
2023/10/16 09:31:52;;;;;;;3.15;0.88;;;;;;;23.64;41.16;96395.91;5095562;28;20371;-27
2023/10/16 09:34:25;;;;;;;4.60;1.10;;;;;;;23.64;40.88;96396.66;5095654;28;20451;-27
2023/10/16 09:37:29;;;;;;;;;;;;;;;23.57;40.79;96397.22;5095877;28;20498;-26
2023/10/16 09:39:46;;;;;;;3.63;0.95;;;;;;;23.54;40.82;96398.25;5092485;28;19908;-27
2023/10/16 09:42:12;;;;;;;2.83;0.70;;;;;;;23.65;40.66;96391.88;5095674;28;20472;-26
2023/10/16 09:44:44;;;;;;;2.13;0.75;;;;;;;23.67;40.61;96405.22;5095163;28;20020;-27
2023/10/16 09:47:28;;;;;;;2.50;0.80;;;;;;;23.63;40.83;96399.94;5095540;28;20019;-27
2023/10/16 09:49:58;;;;;;;4.47;0.80;;;;;;;23.69;40.99;96394.38;5095771;28;20020;-26
2023/10/16 09:52:24;;;;;;;1.75;0.60;;;;;;;23.63;40.90;96395.16;5095172;28;20117;-27
2023/10/16 09:54:54;;;;;;;1.33;0.70;;;;;;;23.67;40.77;96399.69;5096274;28;20157;-26
2023/10/16 09:57:27;;;;;;;2.47;0.73;;;;;;;23.81;40.28;96396.56;5100328;28;20096;-26
2023/10/16 10:00:00;;;;;;;1.45;0.90;;;;;;;23.72;40.27;96402.41;5102903;28;20397;-26
2023/10/16 10:02:27;;;;;;;1.42;0.75;;;;;;;23.69;40.66;96408.22;5094981;28;20020;-27
2023/10/16 10:05:08;;;;;;;2.05;0.93;;;;;;;23.76;40.87;96408.41;5095302;28;20425;-26
2023/10/16 10:07:38;;;;;;;4.15;0.82;;;;;;;23.82;40.71;96403.59;5095051;28;20077;-27
2023/10/16 10:13:16;;;;;;;2.13;0.70;;;;;;;23.90;40.70;96406.53;5095392;28;20109;-27
2023/10/16 10:15:48;;;;;;;1.90;0.90;;;;;;;23.97;40.18;96406.00;5092280;28;20051;-26
2023/10/16 10:18:42;;;;;;;4.97;0.80;;;;;;;23.85;40.37;96405.34;5094504;28;20024;-27
2023/10/16 10:21:18;;;;;;;3.42;0.93;;;;;;;23.79;40.94;96395.56;5094962;28;20020;-26
2023/10/16 10:23:44;;;;;;;3.63;1.05;;;;;;;23.86;41.63;96401.28;5094486;28;20020;-26
2023/10/16 10:26:11;;;;;;;3.05;1.08;;;;;;;24.07;40.96;96398.09;5094428;28;20016;-28
2023/10/16 10:28:38;;;;;;;1.38;0.90;;;;;;;23.95;41.28;96398.22;5094731;28;20016;-27
2023/10/16 10:31:05;;;;;;;2.55;0.93;;;;;;;23.88;41.25;96398.75;5094720;28;20023;-26
2023/10/16 10:33:42;;;;;;;4.63;0.98;;;;;;;23.77;41.56;96387.75;5094902;28;20039;-27
2023/10/16 10:36:30;;;;;;;2.88;0.88;;;;;;;23.96;41.26;96385.88;5094106;28;20031;-26
2023/10/16 10:42:05;;;;;;;2.88;1.00;;;;;;;23.88;41.34;96379.38;5094352;28;20020;-27
2023/10/16 10:44:39;;;;;;;2.10;1.13;;;;;;;23.81;41.54;96377.16;5094408;28;20193;-27
2023/10/16 10:47:32;;;;;;;1.85;0.80;;;;;;;24.10;41.16;96369.38;5094397;28;20077;-27
2023/10/16 10:50:00;;;;;;;;;;;;;;;23.97;41.93;96367.97;5094397;28;20095;-27
2023/10/16 10:52:30;;;;;;;2.20;1.00;;;;;;;23.96;42.02;96372.00;5093856;28;19916;-26
2023/10/16 10:55:00;;;;;;;3.45;1.13;;;;;;;24.19;41.52;96366.25;5093683;28;20056;-27
2023/10/16 10:57:26;;;;;;;3.30;1.20;;;;;;;23.94;42.11;96368.25;5093880;28;20023;-28
2023/10/16 11:05:31;;;;;;;5.22;1.08;;;;;;;24.13;41.32;96357.25;5101441;28;20424;-27
2023/10/16 11:10:42;;;;;;;2.53;1.05;;;;;;;24.17;40.75;96357.72;5094081;28;20035;-28
2023/10/16 11:13:08;;;;;;;2.55;0.90;;;;;;;24.28;40.99;96352.09;5093595;28;20027;-26
2023/10/16 11:15:35;;;;;;;3.20;0.90;;;;;;;24.18;41.27;96348.13;5093571;28;20048;-27
2023/10/16 11:18:12;;;;;;;5.93;1.42;;;;;;;23.77;42.00;96353.78;5093987;28;20110;-28
2023/10/16 11:20:39;;;;;;;3.95;1.58;;;;;;;24.08;41.34;96358.06;5093916;28;20389;-27
2023/10/16 11:23:12;;;;;;;5.10;1.10;;;;;;;24.10;41.36;96355.53;5093876;28;20023;-28
2023/10/16 11:25:45;;;;;;;3.67;1.13;;;;;;;24.18;41.17;96345.34;5093835;28;20479;-27
2023/10/16 11:28:17;;;;;;;2.35;1.20;;;;;;;24.22;41.43;96348.59;5093598;28;20020;-29
2023/10/16 11:30:53;;;;;;;3.88;1.13;;;;;;;24.16;41.90;96339.59;5093763;28;20437;-27
2023/10/16 11:33:35;;;;;;;6.10;1.52;;;;;;;23.89;41.36;96342.09;5094170;28;20028;-28
2023/10/16 11:36:06;;;;;;;2.42;1.20;;;;;;;23.92;41.36;96338.28;5097921;28;20016;-28
2023/10/16 11:38:34;;;;;;;5.75;1.50;;;;;;;23.95;40.97;96345.56;5097822;28;20154;-27
2023/10/16 11:41:11;;;;;;;2.03;1.30;;;;;;;24.08;40.92;96338.66;5097578;28;20563;-27
2023/10/16 11:44:01;;;;;;;2.70;1.10;;;;;;;24.13;41.16;96335.06;5097805;28;20024;-28
2023/10/16 11:46:44;;;;;;;1.90;1.27;;;;;;;24.11;41.08;96338.34;5096988;28;20031;-27
2023/10/16 11:52:19;;;;;;;4.00;1.35;;;;;;;24.02;41.36;96335.94;5099705;28;20105;-27
2023/10/16 11:54:51;;;;;;;3.03;1.80;;;;;;;24.18;41.14;96332.25;5098868;28;20027;-27
2023/10/16 11:57:17;;;;;;;2.53;1.40;;;;;;;24.19;41.26;96330.25;5097379;28;20081;-27
2023/10/16 11:59:43;;;;;;;4.10;1.30;;;;;;;23.91;41.43;96331.25;5096977;28;20036;-27
2023/10/16 12:02:12;;;;;;;5.47;1.42;;;;;;;24.09;41.28;96340.16;5097431;28;20055;-27
2023/10/16 12:04:42;;;;;;;3.15;1.25;;;;;;;23.91;41.58;96324.97;5097759;28;20081;-27
2023/10/16 12:07:08;;;;;;;2.78;1.17;;;;;;;23.92;41.59;96327.22;5104604;28;20064;-28
2023/10/16 12:09:42;;;;;;;3.53;1.33;;;;;;;24.06;41.42;96322.56;5104433;28;20098;-27
2023/10/16 12:12:16;;;;;;;3.15;1.10;;;;;;;24.11;41.16;96321.00;5097214;28;20021;-26
2023/10/16 12:14:42;;;;;;;3.00;1.10;;;;;;;24.08;41.27;96317.25;5097144;28;20357;-27
2023/10/16 12:17:11;;;;;;;3.90;1.20;;;;;;;24.19;41.44;96314.38;5097066;28;20041;-27
2023/10/16 12:19:37;;;;;;;3.45;1.00;;;;;;;24.10;41.21;96316.75;5104316;28;20016;-27
2023/10/16 12:22:03;;;;;;;3.65;1.10;;;;;;;24.17;41.34;96319.66;5104716;28;20080;-27
2023/10/16 12:24:29;;;;;;;4.47;1.02;;;;;;;24.25;40.99;96314.31;5104510;28;20471;-27
2023/10/16 12:26:55;;;;;;;2.80;0.95;;;;;;;24.32;41.35;96320.06;5095563;28;20024;-26
2023/10/16 12:29:21;;;;;;;3.95;1.00;;;;;;;24.20;40.98;96312.34;5096425;28;20020;-28
2023/10/16 12:31:48;;;;;;;4.10;1.10;;;;;;;24.13;41.09;96307.38;5096742;28;20038;-27
2023/10/16 12:34:17;;;;;;;5.47;1.10;;;;;;;24.05;41.39;96312.00;5096238;28;20035;-26
2023/10/16 12:36:43;;;;;;;3.70;1.30;;;;;;;24.27;41.45;96306.25;5104154;28;20490;-28
2023/10/16 12:39:25;;;;;;;9.18;1.63;;;;;;;24.16;41.24;96307.09;5096823;28;20107;-26
2023/10/16 12:42:01;;;;;;;4.43;1.13;;;;;;;24.26;40.79;96311.03;5096551;28;20016;-27
2023/10/16 12:44:27;;;;;;;2.55;0.93;;;;;;;24.31;40.97;96312.25;5096352;28;20013;-27
2023/10/16 12:46:56;;;;;;;3.35;1.13;;;;;;;24.21;41.64;96306.28;5096190;28;20527;-27
2023/10/16 12:49:21;;;;;;;4.68;1.20;;;;;;;24.20;41.73;96307.56;5096586;28;20115;-28
2023/10/16 12:51:49;;;;;;;2.95;1.30;;;;;;;24.08;41.88;96310.97;5096199;28;20457;-29
2023/10/16 12:54:15;;;;;;;5.40;1.30;;;;;;;24.12;41.49;96316.94;5096275;28;20111;-27
2023/10/16 12:56:43;;;;;;;5.50;1.35;;;;;;;24.13;41.71;96310.13;5096289;28;20107;-26
2023/10/16 12:59:09;;;;;;;3.25;1.25;;;;;;;24.21;41.16;96317.38;5096210;28;20020;-26
2023/10/16 13:01:36;;;;;;;5.93;1.25;;;;;;;24.36;41.15;96316.97;5096398;28;20127;-27
2023/10/16 13:04:06;;;;;;;5.00;1.10;;;;;;;24.15;41.58;96321.47;5096449;28;20473;-27
2023/10/16 13:06:32;;;;;;;2.30;1.10;;;;;;;24.16;41.77;96320.19;5096058;28;20016;-27
2023/10/16 13:09:00;;;;;;;3.05;1.27;;;;;;;24.23;41.46;96316.88;5096437;28;20016;-27
2023/10/16 13:11:27;;;;;;;4.25;1.20;;;;;;;24.08;42.03;96313.72;5096279;28;20020;-29
2023/10/16 13:13:55;;;;;;;2.50;1.00;;;;;;;24.12;41.95;96317.69;5095869;28;20487;-28
2023/10/16 13:16:24;;;;;;;2.90;1.00;;;;;;;24.09;41.67;96312.47;5103244;28;20016;-27
2023/10/16 13:18:59;;;;;;;4.38;1.10;;;;;;;24.29;41.15;96314.78;5095969;28;20487;-27
2023/10/16 13:21:33;;;;;;;2.40;1.10;;;;;;;24.19;41.41;96317.13;5096004;28;20024;-26
2023/10/16 13:24:06;;;;;;;3.17;1.10;;;;;;;24.18;41.42;96314.88;5096110;28;20425;-27
2023/10/16 13:26:36;;;;;;;4.27;1.43;;;;;;;24.10;41.35;96325.06;5103434;28;20051;-29
2023/10/16 13:29:07;;;;;;;2.42;0.90;;;;;;;24.24;41.30;96315.59;5095504;28;20200;-29
2023/10/16 13:31:36;;;;;;;3.05;1.23;;;;;;;24.26;41.14;96316.56;5095814;28;20028;-27
2023/10/16 13:34:03;;;;;;;5.78;1.20;;;;;;;24.09;41.50;96302.13;5095546;28;20482;-27
2023/10/16 13:36:35;;;;;;;3.75;1.42;;;;;;;24.20;41.29;96306.81;5095552;28;20032;-27
2023/10/16 13:39:08;;;;;;;3.75;1.20;;;;;;;24.41;41.36;96302.31;5095487;28;20043;-27
2023/10/16 13:41:50;;;;;;;3.42;1.02;;;;;;;24.24;41.49;96305.25;5095705;28;20027;-27
2023/10/16 13:44:19;;;;;;;2.55;1.55;;;;;;;24.30;41.53;96300.41;5095517;28;20024;-26
2023/10/16 13:46:46;;;;;;;5.07;1.27;;;;;;;24.23;41.50;96305.81;5095686;28;20039;-27
2023/10/16 13:49:14;;;;;;;3.42;1.23;;;;;;;24.17;41.82;96310.59;5095421;28;20076;-27
2023/10/16 13:51:40;;;;;;;2.83;1.27;;;;;;;24.24;41.51;96304.50;5094863;28;20051;-27
2023/10/16 13:54:11;;;;;;;4.18;1.08;;;;;;;24.19;41.68;96305.31;5094919;28;20016;-27
2023/10/16 13:56:41;;;;;;;4.88;1.40;;;;;;;24.19;41.50;96305.31;5094882;28;20020;-28
2023/10/16 13:59:07;;;;;;;2.90;1.40;;;;;;;24.11;41.82;96307.16;5102811;28;20027;-27
2023/10/16 14:01:39;;;;;;;3.97;1.42;;;;;;;24.20;41.49;96295.72;5095180;28;20024;-27
2023/10/16 14:04:15;;;;;;;4.95;1.30;;;;;;;24.19;41.36;96297.00;5095450;28;20489;-26